createdAt,value
2022-10-31T00:01:12.688Z,12.1
2022-10-31T00:02:15.271Z,24.3
2022-10-31T00:04:17.036Z,18.4
2022-10-31T00:06:19.004Z,5.9
2022-10-31T00:08:20.640Z,4.9
2022-10-31T00:10:25.698Z,9.8
2022-10-31T00:12:27.506Z,10.7
2022-10-31T00:14:29.286Z,10.5
2022-10-31T00:16:31.102Z,12.7
2022-10-31T00:18:32.922Z,9
2022-10-31T00:20:34.868Z,15
2022-10-31T00:22:36.678Z,15.2
2022-10-31T00:24:41.716Z,8.6
2022-10-31T00:26:45.091Z,20.9
2022-10-31T00:28:46.838Z,11.8
2022-10-31T00:30:48.645Z,7.9
2022-10-31T00:34:52.251Z,10.2
2022-10-31T00:36:54.060Z,13
2022-10-31T00:38:59.103Z,17.5
2022-10-31T00:41:01.040Z,20.6
2022-10-31T00:45:04.527Z,13.8
2022-10-31T00:49:08.109Z,16.7
2022-10-31T00:51:09.924Z,15
2022-10-31T00:53:14.958Z,10.2
2022-10-31T00:55:16.785Z,13.1
2022-10-31T00:57:18.578Z,8.9
2022-10-31T00:59:47.242Z,9.7
2022-10-31T01:03:50.860Z,7
2022-10-31T01:05:55.908Z,10.6
2022-10-31T01:07:57.719Z,12.1
2022-10-31T01:09:59.514Z,5.7
2022-10-31T01:12:01.325Z,9.9
2022-10-31T01:14:03.113Z,9.3
2022-10-31T01:16:04.922Z,12.6
2022-10-31T01:18:06.710Z,6.1
2022-10-31T01:20:11.773Z,8.8
2022-10-31T01:22:13.594Z,7.8
2022-10-31T01:24:15.394Z,7.4
2022-10-31T01:26:17.211Z,13.6
2022-10-31T01:28:19.027Z,8.4
2022-10-31T01:30:20.798Z,7.6
2022-10-31T01:32:22.618Z,5.8
2022-10-31T01:34:27.643Z,20
2022-10-31T01:36:29.433Z,6.8
2022-10-31T01:38:31.228Z,9.1
2022-10-31T01:42:34.827Z,12.4
2022-10-31T01:44:36.641Z,10.1
2022-10-31T01:52:47.092Z,10.2
2022-10-31T01:55:51.421Z,11.3
2022-10-31T01:57:53.233Z,18.7
2022-10-31T01:59:55.017Z,11.8
2022-10-31T02:02:00.258Z,10.9
2022-10-31T02:04:01.842Z,7.9
2022-10-31T02:06:03.643Z,12.1
2022-10-31T02:08:05.463Z,12.1
2022-10-31T02:10:07.215Z,11.3
2022-10-31T02:12:09.026Z,13.8
2022-10-31T02:14:10.804Z,11.3
2022-10-31T02:16:15.856Z,10.3
2022-10-31T02:18:17.656Z,9.4
2022-10-31T02:20:19.437Z,10.1
2022-10-31T02:22:21.223Z,12.9
2022-10-31T02:24:23.039Z,17.2
2022-10-31T02:26:24.819Z,9.4
2022-10-31T02:28:26.628Z,13.7
2022-10-31T02:30:31.677Z,19
2022-10-31T02:32:33.473Z,17.1
2022-10-31T02:34:35.270Z,13.6
2022-10-31T02:36:37.059Z,8.9
2022-10-31T02:38:38.850Z,11
2022-10-31T02:40:40.645Z,15.7
2022-10-31T02:44:47.506Z,17.3
2022-10-31T02:46:49.253Z,12.3
2022-10-31T02:48:51.061Z,25.8
2022-10-31T02:51:55.364Z,16.1
2022-10-31T03:00:05.791Z,13.2
2022-10-31T03:02:07.770Z,13.8
2022-10-31T03:04:09.365Z,21.9
2022-10-31T03:06:11.178Z,17.5
2022-10-31T03:08:12.954Z,17.7
2022-10-31T03:10:14.762Z,15.6
2022-10-31T03:12:19.799Z,11.5
2022-10-31T03:14:21.580Z,17.5
2022-10-31T03:16:23.366Z,16.5
2022-10-31T03:18:25.168Z,17.3
2022-10-31T03:20:26.970Z,17.3
2022-10-31T03:22:28.758Z,16.8
2022-10-31T03:24:30.544Z,26.8
2022-10-31T03:26:35.556Z,17.4
2022-10-31T03:28:37.366Z,17.3
2022-10-31T03:30:39.131Z,10.4
2022-10-31T03:32:40.939Z,13.9
2022-10-31T03:34:42.706Z,15.7
2022-10-31T03:36:44.497Z,15.1
2022-10-31T03:38:46.297Z,25.4
2022-10-31T03:40:51.330Z,20
2022-10-31T03:42:53.091Z,17.4
2022-10-31T03:44:54.867Z,30.2
2022-10-31T03:45:57.406Z,18.6
2022-10-31T03:47:59.618Z,18.2
2022-10-31T03:50:00.967Z,14.4
2022-10-31T03:54:07.790Z,23.5
2022-10-31T03:56:09.587Z,26.5
2022-10-31T03:58:11.431Z,20.8
2022-10-31T04:00:13.132Z,26
2022-10-31T04:06:18.466Z,17.9
2022-10-31T04:08:23.487Z,27.8
2022-10-31T04:10:30.070Z,30.8
2022-10-31T04:12:27.025Z,19
2022-10-31T04:14:28.804Z,28
2022-10-31T04:16:30.569Z,18.3
2022-10-31T04:18:32.350Z,21.8
2022-10-31T04:20:34.109Z,27.3
2022-10-31T04:22:39.134Z,25
2022-10-31T04:24:40.913Z,24.3
2022-10-31T04:26:42.689Z,20.1
2022-10-31T04:28:44.466Z,21.8
2022-10-31T04:30:46.234Z,23.8
2022-10-31T04:32:48.005Z,21.9
2022-10-31T04:34:49.792Z,22.1
2022-10-31T04:36:54.787Z,27.2
2022-10-31T04:38:56.549Z,20.1
2022-10-31T04:40:58.337Z,26.6
2022-10-31T04:43:27.028Z,23.5
2022-10-31T04:45:28.814Z,21.6
2022-10-31T04:47:30.591Z,26.3
2022-10-31T04:49:35.604Z,33.6
2022-10-31T04:51:37.359Z,27.3
2022-10-31T04:53:39.112Z,25.4
2022-10-31T04:55:40.879Z,30
2022-10-31T04:57:42.665Z,28.5
2022-10-31T05:01:46.282Z,20.8
2022-10-31T05:11:58.302Z,25.2
2022-10-31T05:18:06.841Z,28
2022-10-31T05:20:08.595Z,25.6
2022-10-31T05:22:10.385Z,33.6
2022-10-31T05:24:12.128Z,23.8
2022-10-31T05:26:13.920Z,16.8
2022-10-31T05:28:15.674Z,16.7
2022-10-31T05:30:17.460Z,15.8
2022-10-31T05:32:22.452Z,19.9
2022-10-31T05:34:24.225Z,25.2
2022-10-31T05:36:25.971Z,16.2
2022-10-31T05:37:28.481Z,18.2
2022-10-31T05:39:30.256Z,20.3
2022-10-31T05:41:32.034Z,20.7
2022-10-31T05:43:33.779Z,19.5
2022-10-31T05:45:38.780Z,18.8
2022-10-31T05:47:40.545Z,15.8
2022-10-31T05:49:42.332Z,17.1
2022-10-31T05:51:44.091Z,23
2022-10-31T05:53:45.853Z,17.2
2022-10-31T05:55:47.617Z,22.9
2022-10-31T05:57:49.366Z,16.6
2022-10-31T05:59:55.265Z,19.8
2022-10-31T06:01:56.158Z,21.8
2022-10-31T06:03:57.889Z,15.7
2022-10-31T06:05:59.657Z,26.3
2022-10-31T06:08:01.791Z,18.3
2022-10-31T06:10:03.191Z,17.3
2022-10-31T06:12:04.921Z,18.2
2022-10-31T06:14:09.924Z,23.2
2022-10-31T06:16:11.652Z,17.7
2022-10-31T06:18:14.967Z,17.1
2022-10-31T06:20:16.682Z,16.9
2022-10-31T06:22:18.425Z,21.6
2022-10-31T06:24:20.188Z,21.1
2022-10-31T06:26:21.962Z,15.1
2022-10-31T06:28:26.930Z,26.7
2022-10-31T06:30:28.864Z,17
2022-10-31T06:32:30.448Z,20.2
2022-10-31T06:33:32.959Z,22.8
2022-10-31T06:35:34.728Z,20.7
2022-10-31T06:37:36.487Z,16.7
2022-10-31T06:39:38.241Z,14.7
2022-10-31T06:41:43.211Z,17.8
2022-10-31T06:43:44.986Z,15.6
2022-10-31T06:49:50.216Z,25.1
2022-10-31T06:51:51.981Z,21.8
2022-10-31T06:53:53.731Z,25.8
2022-10-31T06:55:58.686Z,19.4
2022-10-31T06:58:03.047Z,22.2
2022-10-31T07:00:02.273Z,22.3
2022-10-31T07:02:04.081Z,20.6
2022-10-31T07:04:05.677Z,21.1
2022-10-31T07:06:07.419Z,20.9
2022-10-31T07:08:09.174Z,20.3
2022-10-31T07:10:14.168Z,28.4
2022-10-31T07:12:15.925Z,19.7
2022-10-31T07:14:17.665Z,25.3
2022-10-31T07:16:19.441Z,29.7
2022-10-31T07:18:21.173Z,28.3
2022-10-31T07:20:22.944Z,26.2
2022-10-31T07:22:24.679Z,24.9
2022-10-31T07:24:29.651Z,23.4
2022-10-31T07:26:31.440Z,24.6
2022-10-31T07:28:33.163Z,31.8
2022-10-31T07:29:35.658Z,28.8
2022-10-31T07:31:37.433Z,26.6
2022-10-31T07:33:39.220Z,25
2022-10-31T07:35:40.975Z,27
2022-10-31T07:37:45.975Z,28.1
2022-10-31T07:41:49.543Z,25.1
2022-10-31T07:43:51.274Z,32.9
2022-10-31T07:45:53.030Z,25.7
2022-10-31T07:47:54.792Z,22.7
2022-10-31T07:49:56.556Z,26.2
2022-10-31T07:52:01.570Z,23
2022-10-31T07:54:03.312Z,28
2022-10-31T07:56:05.095Z,23.6
2022-10-31T08:02:10.404Z,23.5
2022-10-31T08:10:20.796Z,12.5
2022-10-31T08:12:22.570Z,15.5
2022-10-31T08:14:24.366Z,10.2
2022-10-31T08:20:32.987Z,13.5
2022-10-31T08:27:05.280Z,14.1
2022-10-31T08:29:07.074Z,10.8
2022-10-31T08:31:08.871Z,22.6
2022-10-31T08:33:13.933Z,17.2
2022-10-31T08:35:15.742Z,12.4
2022-10-31T08:37:17.554Z,10.6
2022-10-31T08:39:19.341Z,12.4
2022-10-31T08:41:21.181Z,10.3
2022-10-31T08:43:22.971Z,11.2
2022-10-31T08:45:24.819Z,8.8
2022-10-31T08:47:29.869Z,11.6
2022-10-31T08:49:31.684Z,17.9
2022-10-31T08:53:35.301Z,14.4
2022-10-31T08:59:40.767Z,14.2
2022-10-31T09:01:45.932Z,12.7
2022-10-31T09:03:47.641Z,13.6
2022-10-31T09:05:49.617Z,12
2022-10-31T09:07:51.273Z,10.7
2022-10-31T09:09:53.098Z,10.8
2022-10-31T09:11:54.913Z,10.4
2022-10-31T09:13:56.739Z,10.5
2022-10-31T09:16:01.818Z,13.7
2022-10-31T09:18:04.008Z,13.7
2022-10-31T09:23:09.792Z,13.5
2022-10-31T09:25:11.606Z,20.6
2022-10-31T09:31:20.340Z,12.2
2022-10-31T09:33:22.162Z,10.1
2022-10-31T09:35:25.804Z,19.2
2022-10-31T09:37:25.817Z,11.7
2022-10-31T09:39:27.632Z,13.6
2022-10-31T09:41:29.454Z,14.9
2022-10-31T09:43:34.509Z,11.2
2022-10-31T09:45:36.334Z,12.4
2022-10-31T09:47:38.162Z,12.1
2022-10-31T09:49:40.008Z,11.5
2022-10-31T09:51:41.804Z,19.1
2022-10-31T09:53:43.637Z,12.4
2022-10-31T09:55:45.458Z,15.6
2022-10-31T09:57:50.509Z,11.8
2022-10-31T09:59:52.332Z,11.9
2022-10-31T10:01:54.216Z,17.4
2022-10-31T10:03:55.986Z,17.7
2022-10-31T10:05:57.816Z,20
2022-10-31T10:07:59.673Z,18.6
2022-10-31T10:10:01.487Z,23.4
2022-10-31T10:12:06.563Z,19.6
2022-10-31T10:14:08.386Z,24
2022-10-31T10:16:10.222Z,17.7
2022-10-31T10:17:12.731Z,17.8
2022-10-31T10:19:14.627Z,17
2022-10-31T10:23:18.204Z,16.6
2022-10-31T10:25:23.252Z,20.2
2022-10-31T10:27:25.088Z,17.8
2022-10-31T10:33:30.545Z,22.1
2022-10-31T10:35:32.374Z,23
2022-10-31T10:39:39.254Z,20.3
2022-10-31T10:41:41.087Z,23.9
2022-10-31T10:47:46.580Z,18.9
2022-10-31T10:52:07.310Z,22.9
2022-10-31T10:53:55.267Z,14.1
2022-10-31T10:55:57.115Z,22.3
2022-10-31T10:57:59.201Z,18.9
2022-10-31T11:00:00.799Z,17.5
2022-10-31T11:02:02.593Z,16.2
2022-10-31T11:04:04.956Z,12.2
2022-10-31T11:06:06.782Z,15.8
2022-10-31T11:08:11.862Z,19.9
2022-10-31T11:10:13.696Z,18.2
2022-10-31T11:12:15.540Z,16.8
2022-10-31T11:13:18.099Z,14.8
2022-10-31T11:15:19.981Z,21.4
2022-10-31T11:17:21.725Z,14.1
2022-10-31T11:19:23.552Z,18.6
2022-10-31T11:23:30.462Z,17.5
2022-10-31T11:25:32.279Z,15.3
2022-10-31T11:29:35.933Z,12.9
2022-10-31T11:31:37.753Z,19.7
2022-10-31T11:33:39.566Z,17
2022-10-31T11:35:44.656Z,17.6
2022-10-31T11:37:46.476Z,14.7
2022-10-31T11:39:48.296Z,15
2022-10-31T11:41:50.133Z,14.5
2022-10-31T11:43:51.943Z,9.5
2022-10-31T11:45:53.791Z,16.9
2022-10-31T11:47:59.655Z,13
2022-10-31T11:50:00.690Z,16.8
2022-10-31T11:52:02.493Z,18.1
2022-10-31T11:54:04.334Z,12.6
2022-10-31T11:56:06.155Z,15.8
2022-10-31T11:58:07.968Z,13.8
2022-10-31T12:00:09.806Z,16.8
2022-10-31T12:02:11.707Z,16
2022-10-31T12:04:16.710Z,14.4
2022-10-31T12:06:18.525Z,17.2
2022-10-31T12:08:20.364Z,17.6
2022-10-31T12:10:50.506Z,17.6
2022-10-31T12:12:52.322Z,15.4
2022-10-31T12:14:54.170Z,18.5
2022-10-31T12:16:59.245Z,17.5
2022-10-31T12:19:01.060Z,18.4
2022-10-31T12:21:02.886Z,28.6
2022-10-31T12:25:06.558Z,14.9
2022-10-31T12:29:10.223Z,23.6
2022-10-31T12:37:20.774Z,24
2022-10-31T12:39:22.590Z,30.6
2022-10-31T12:41:24.426Z,23.1
2022-10-31T12:43:26.245Z,22.8
2022-10-31T12:45:31.319Z,27.2
2022-10-31T12:47:33.151Z,18.7
2022-10-31T12:49:34.987Z,18.5
2022-10-31T12:51:36.805Z,24.7
2022-10-31T12:53:38.644Z,23
2022-10-31T12:55:40.605Z,20.5
2022-10-31T12:57:42.374Z,36.1
2022-10-31T12:59:47.359Z,25.8
2022-10-31T13:01:49.316Z,23.2
2022-10-31T13:03:51.023Z,25.7
2022-10-31T13:04:53.561Z,22.5
2022-10-31T13:06:55.409Z,30.6
2022-10-31T13:08:57.246Z,20.3
2022-10-31T13:13:04.884Z,28.8
2022-10-31T13:15:06.711Z,18.7
2022-10-31T13:17:08.511Z,22.7
2022-10-31T13:19:10.357Z,19.8
2022-10-31T13:23:36.658Z,14.8
2022-10-31T13:25:15.822Z,29.3
2022-10-31T13:27:20.909Z,22.4
2022-10-31T13:29:24.678Z,21.2
2022-10-31T13:31:24.581Z,21.3
2022-10-31T13:33:26.393Z,23.9
2022-10-31T13:35:28.208Z,23.8
2022-10-31T13:41:36.952Z,21.7
2022-10-31T13:43:38.782Z,26.8
2022-10-31T13:45:40.612Z,17.9
2022-10-31T13:47:42.487Z,22.1
2022-10-31T13:49:44.275Z,24.8
2022-10-31T13:51:46.090Z,21.4
2022-10-31T13:53:47.929Z,25.4
2022-10-31T13:55:53.022Z,16.8
2022-10-31T13:57:54.842Z,35.5
2022-10-31T13:59:56.644Z,27.6
2022-10-31T14:00:59.506Z,17.9
2022-10-31T14:03:01.085Z,19.4
2022-10-31T14:05:02.850Z,18.2
2022-10-31T14:07:04.680Z,22.2
2022-10-31T14:09:09.765Z,18.1
2022-10-31T14:11:11.645Z,26.7
2022-10-31T14:13:13.423Z,22.3
2022-10-31T14:15:15.261Z,22.7
2022-10-31T14:17:17.061Z,21.5
2022-10-31T14:23:25.803Z,18.3
2022-10-31T14:25:27.621Z,16.2
2022-10-31T14:29:31.264Z,20.9
2022-10-31T14:31:33.113Z,25.8
2022-10-31T14:33:34.919Z,17.2
2022-10-31T14:35:36.761Z,21.3
2022-10-31T14:37:41.863Z,19.4
2022-10-31T14:39:43.681Z,26.7
2022-10-31T14:41:45.511Z,20.7
2022-10-31T14:43:47.341Z,19.4
2022-10-31T14:45:49.161Z,22.1
2022-10-31T14:47:50.997Z,19.9
2022-10-31T14:49:52.820Z,24.1
2022-10-31T14:51:57.906Z,24.1
2022-10-31T14:53:59.742Z,24.8
2022-10-31T14:56:05.824Z,17.2
2022-10-31T14:57:04.116Z,16.7
2022-10-31T14:59:05.914Z,18.6
2022-10-31T15:01:07.898Z,18.7
2022-10-31T15:03:09.595Z,19.3
2022-10-31T15:05:14.704Z,20
2022-10-31T15:07:21.686Z,28.9
2022-10-31T15:09:18.395Z,22
2022-10-31T15:11:20.232Z,37.1
2022-10-31T15:13:22.076Z,32.7
2022-10-31T15:15:23.862Z,43.8
2022-10-31T15:17:25.712Z,21.7
2022-10-31T15:19:30.788Z,36.6
2022-10-31T15:21:32.609Z,35.1
2022-10-31T15:23:34.436Z,35.9
2022-10-31T15:25:36.277Z,35.6
2022-10-31T15:27:38.104Z,32.5
2022-10-31T15:29:39.941Z,35.4
2022-10-31T15:31:41.752Z,20.6
2022-10-31T15:33:48.454Z,25
2022-10-31T15:35:48.659Z,33.7
2022-10-31T15:37:50.492Z,30.2
2022-10-31T15:39:52.336Z,37.9
2022-10-31T15:41:54.975Z,36
2022-10-31T15:43:55.968Z,45.3
2022-10-31T15:50:04.785Z,33.3
2022-10-31T15:52:06.511Z,30.2
2022-10-31T15:54:35.165Z,24.7
2022-10-31T15:56:37.002Z,31.2
2022-10-31T15:58:38.825Z,24.4
2022-10-31T16:00:43.894Z,25.6
2022-10-31T16:02:45.720Z,30.1
2022-10-31T16:04:47.533Z,29
2022-10-31T16:06:49.378Z,25.5
2022-10-31T16:08:51.216Z,24.1
2022-10-31T16:10:53.070Z,24.5
2022-10-31T16:12:54.864Z,32.3
2022-10-31T16:14:59.945Z,35.7
2022-10-31T16:17:01.794Z,35.2
2022-10-31T16:19:03.597Z,22.5
2022-10-31T16:21:05.588Z,26.5
2022-10-31T16:23:07.257Z,24.6
2022-10-31T16:27:11.315Z,28.9
2022-10-31T16:29:16.386Z,18.4
2022-10-31T16:31:18.212Z,40.6
2022-10-31T16:33:20.050Z,26.9
2022-10-31T16:35:21.883Z,26.6
2022-10-31T16:37:23.703Z,21.8
2022-10-31T16:39:25.538Z,29.8
2022-10-31T16:41:27.396Z,28.3
2022-10-31T16:43:32.460Z,27.9
2022-10-31T16:45:34.280Z,23.8
2022-10-31T16:47:36.092Z,28.6
2022-10-31T16:50:40.461Z,23.8
2022-10-31T16:52:53.956Z,23.4
2022-10-31T16:54:44.152Z,38.3
2022-10-31T16:56:49.228Z,26.4
2022-10-31T16:58:51.058Z,46
2022-10-31T17:00:52.992Z,34.8
2022-10-31T17:02:54.755Z,37.9
2022-10-31T17:04:57.014Z,27.8
2022-10-31T17:06:58.415Z,41.2
2022-10-31T17:09:00.241Z,27.5
2022-10-31T17:11:05.316Z,23.3
2022-10-31T17:13:07.159Z,28.4
2022-10-31T17:15:08.979Z,32.2
2022-10-31T17:19:12.662Z,32.8
2022-10-31T17:21:14.482Z,22.7
2022-10-31T17:23:16.331Z,24
2022-10-31T17:25:21.374Z,25.7
2022-10-31T17:27:23.196Z,31.6
2022-10-31T17:29:25.053Z,33.7
2022-10-31T17:31:26.865Z,32.9
2022-10-31T17:33:28.691Z,38.9
2022-10-31T17:35:30.525Z,33.2
2022-10-31T17:37:32.343Z,32.8
2022-10-31T17:39:37.468Z,45.4
2022-10-31T17:41:39.251Z,36.9
2022-10-31T17:46:45.431Z,28.1
2022-10-31T17:48:47.243Z,31.6
2022-10-31T17:52:54.163Z,31
2022-10-31T17:54:55.993Z,38.2
2022-10-31T17:58:59.759Z,46.8
2022-10-31T18:01:01.949Z,29.7
2022-10-31T18:03:04.200Z,39.5
2022-10-31T18:05:05.557Z,36.2
2022-10-31T18:07:10.635Z,30.4
2022-10-31T18:09:12.415Z,30.4
2022-10-31T18:11:14.244Z,29.8
2022-10-31T18:13:16.080Z,42.2
2022-10-31T18:15:17.893Z,32.5
2022-10-31T18:17:19.725Z,38.1
2022-10-31T18:19:21.549Z,46.6
2022-10-31T18:21:26.609Z,48.5
2022-10-31T18:23:28.436Z,45.9
2022-10-31T18:25:30.259Z,32.4
2022-10-31T18:27:32.076Z,42.4
2022-10-31T18:31:35.715Z,31.7
2022-10-31T18:33:37.593Z,36.2
2022-10-31T18:35:42.589Z,41.9
2022-10-31T18:37:44.426Z,47.5
2022-10-31T18:39:46.230Z,42
2022-10-31T18:40:48.775Z,40.7
2022-10-31T18:42:50.593Z,36.7
2022-10-31T18:44:52.403Z,49.1
2022-10-31T18:46:54.235Z,44.3
2022-10-31T18:48:59.296Z,42.5
2022-10-31T18:51:01.226Z,46.1
2022-10-31T18:53:03.258Z,40
2022-10-31T18:55:04.772Z,58.3
2022-10-31T18:57:06.559Z,49.5
2022-10-31T19:01:10.424Z,47.8
2022-10-31T19:03:15.281Z,41.5
2022-10-31T19:05:17.108Z,44.2
2022-10-31T19:07:18.900Z,47.9
2022-10-31T19:09:20.726Z,36.5
2022-10-31T19:11:22.534Z,38.8
2022-10-31T19:13:24.346Z,36.4
2022-10-31T19:15:26.159Z,36.8
2022-10-31T19:21:34.842Z,46.7
2022-10-31T19:23:36.656Z,44.6
2022-10-31T19:25:38.535Z,37.5
2022-10-31T19:27:40.265Z,40.9
2022-10-31T19:29:42.105Z,46.7
2022-10-31T19:31:47.144Z,41.3
2022-10-31T19:33:48.964Z,42.8
2022-10-31T19:35:50.749Z,40.7
2022-10-31T19:44:28.107Z,41.7
2022-10-31T19:52:35.359Z,38
2022-10-31T19:54:37.168Z,44.9
2022-10-31T19:56:38.982Z,40.5
2022-10-31T19:58:44.071Z,53.3
2022-10-31T20:00:45.990Z,36.7
2022-10-31T20:02:47.689Z,39.7
2022-10-31T20:08:53.127Z,46.2
2022-10-31T20:10:55.089Z,37.3
2022-10-31T20:13:00.261Z,41
2022-10-31T20:15:01.873Z,32.4
2022-10-31T20:17:03.630Z,31.2
2022-10-31T20:19:05.429Z,34.9
2022-10-31T20:21:07.263Z,33.6
2022-10-31T20:23:09.061Z,35.4
2022-10-31T20:25:10.886Z,34.9
2022-10-31T20:27:15.959Z,30.9
2022-10-31T20:29:17.746Z,36.2
2022-10-31T20:31:19.712Z,24
2022-10-31T20:32:22.098Z,35.3
2022-10-31T20:34:23.892Z,32.8
2022-10-31T20:36:25.711Z,34
2022-10-31T20:38:27.519Z,28.6
2022-10-31T20:40:32.590Z,27.4
2022-10-31T20:42:34.430Z,25.3
2022-10-31T20:44:36.229Z,29.4
2022-10-31T20:46:38.040Z,33.1
2022-10-31T20:48:39.851Z,29.7
2022-10-31T20:50:41.676Z,18.3
2022-10-31T20:52:43.467Z,29.2
2022-10-31T20:56:50.339Z,23.1
2022-10-31T20:58:52.162Z,25.3
2022-10-31T21:00:54.036Z,32.5
2022-10-31T21:02:55.790Z,25.6
2022-10-31T21:04:57.608Z,15.1
2022-10-31T21:06:59.415Z,25.5
2022-10-31T21:09:04.484Z,24.8
2022-10-31T21:11:06.273Z,28.4
2022-10-31T21:13:08.093Z,20.7
2022-10-31T21:15:09.917Z,21.9
2022-10-31T21:17:11.880Z,21.5
2022-10-31T21:19:13.546Z,23.7
2022-10-31T21:21:15.336Z,23.1
2022-10-31T21:23:20.391Z,24.7
2022-10-31T21:25:22.213Z,15.7
2022-10-31T21:27:24.019Z,13.8
2022-10-31T21:28:26.535Z,19.4
2022-10-31T21:30:28.350Z,29.3
2022-10-31T21:32:30.184Z,73.8
2022-10-31T21:34:31.970Z,30.6
2022-10-31T21:36:37.272Z,22.2
2022-10-31T21:38:39.084Z,28.3
2022-10-31T21:40:40.941Z,11.2
2022-10-31T21:42:42.758Z,20.4
2022-10-31T21:44:44.564Z,21.9
2022-10-31T21:46:46.352Z,15.1
2022-10-31T21:50:53.238Z,21.5
2022-10-31T21:52:55.049Z,15.4
2022-10-31T21:54:56.869Z,13
2022-10-31T21:56:58.680Z,10.4
2022-10-31T21:59:00.515Z,15.8
2022-10-31T22:01:02.388Z,9.8
2022-10-31T22:05:09.179Z,22.6
2022-10-31T22:07:10.860Z,11.7
2022-10-31T22:09:12.681Z,13.9
2022-10-31T22:11:14.491Z,10.2
2022-10-31T22:13:16.304Z,11.8
2022-10-31T22:15:18.130Z,12.3
2022-10-31T22:17:19.947Z,14.3
2022-10-31T22:19:25.017Z,15.6
2022-10-31T22:21:26.832Z,13.3
2022-10-31T22:23:28.650Z,13.8
2022-10-31T22:24:31.204Z,10.2
2022-10-31T22:26:33.000Z,18
2022-10-31T22:28:34.816Z,7.4
2022-10-31T22:30:36.635Z,8.1
2022-10-31T22:32:41.695Z,11.2
2022-10-31T22:34:43.506Z,6.9
2022-10-31T22:36:45.344Z,15.7
2022-10-31T22:38:47.153Z,10.5
2022-10-31T22:42:50.769Z,13.3
2022-10-31T22:44:52.599Z,15.8
2022-10-31T22:46:57.660Z,9.3
2022-10-31T22:51:01.293Z,11.1
2022-10-31T22:53:03.115Z,7.6
2022-10-31T22:55:04.937Z,20.8
2022-10-31T22:57:06.759Z,24.8
2022-10-31T22:59:08.558Z,7.6
2022-10-31T23:01:13.766Z,7.5
2022-10-31T23:03:15.438Z,11.4
2022-10-31T23:05:17.284Z,10.4
2022-10-31T23:07:23.053Z,9.9
2022-10-31T23:09:20.901Z,12.3
2022-10-31T23:11:22.715Z,6.4
2022-10-31T23:13:24.517Z,13
2022-10-31T23:15:29.594Z,7.3
2022-10-31T23:17:31.403Z,12.7
2022-10-31T23:19:33.210Z,10.6
2022-10-31T23:22:01.890Z,8.4
2022-10-31T23:24:03.661Z,12.6
2022-10-31T23:26:05.460Z,11.5
2022-10-31T23:28:10.541Z,11.1
2022-10-31T23:30:12.259Z,5.5
2022-10-31T23:38:19.571Z,10.7
2022-10-31T23:40:21.402Z,15.4
2022-10-31T23:42:26.478Z,15.6
2022-10-31T23:44:28.309Z,12.4
2022-10-31T23:46:30.109Z,15.5
2022-10-31T23:48:31.908Z,13.6
2022-10-31T23:50:33.747Z,6.6
2022-10-31T23:56:43.916Z,5.2
2022-10-31T23:58:45.727Z,14
